Fondren, Texas
Current Conditions -  °F | °C
As of 6:50 PM on Friday 19 Dec 2014 (Local Time) from KEFD Reporting Station
Overcast Overcast  
Wind Chill: 54°   Ceiling: 700
Heat Index: 54°   Visibility: 8mi
Dew Point: 52°   Wind: 13mph
Humidity: 94%   Direction: 340°NNW
Pressure: 30.08"   Gusts: NA
Location:  29.5384°N, 95.1252°W
Report Text: KEFD 200050Z 34011KT 8SM BKN007 OVC020 12/11 A3008 RMK PRESRR
Loading
Personal Weather Stations






























Interactive Weather Map New forecast layout! Learn more

10-Day Weather Forecast

Advertisements
Track Severe Weather on mobile